sensor_id;sensor_type;location;lat;lon;timestamp;pressure;altitude;pressure_sealevel;temperature;humidity
6423;BME280;3244;42.708;23.288;2022-08-19T00:11:45;94866.38;;;24.08;nan
6423;BME280;3244;42.708;23.288;2022-08-19T00:36:22;94875.13;;;24.26;nan
6423;BME280;3244;42.708;23.288;2022-08-19T01:33:02;94870.53;;;23.41;nan
6423;BME280;3244;42.708;23.288;2022-08-19T03:03:55;94933.34;;;22.63;nan
6423;BME280;3244;42.708;23.288;2022-08-19T04:10:27;94935.06;;;22.74;nan
6423;BME280;3244;42.708;23.288;2022-08-19T05:29:54;94922.22;;;33.66;nan
6423;BME280;3244;42.708;23.288;2022-08-19T05:34:48;94929.19;;;35.21;nan
6423;BME280;3244;42.708;23.288;2022-08-19T05:37:15;94922.13;;;36.17;nan
6423;BME280;3244;42.708;23.288;2022-08-19T05:39:43;94916.00;;;36.86;nan
6423;BME280;3244;42.708;23.288;2022-08-19T05:42:12;94925.50;;;37.92;nan
6423;BME280;3244;42.708;23.288;2022-08-19T05:44:41;94914.47;;;37.95;nan
6423;BME280;3244;42.708;23.288;2022-08-19T05:47:11;94916.06;;;37.96;nan
6423;BME280;3244;42.708;23.288;2022-08-19T05:49:39;94913.56;;;38.61;nan
6423;BME280;3244;42.708;23.288;2022-08-19T05:52:08;94918.53;;;38.57;nan
6423;BME280;3244;42.708;23.288;2022-08-19T05:54:37;94924.28;;;38.24;nan
6423;BME280;3244;42.708;23.288;2022-08-19T05:57:07;94922.59;;;38.60;nan
6423;BME280;3244;42.708;23.288;2022-08-19T05:59:34;94913.91;;;38.64;nan
6423;BME280;3244;42.708;23.288;2022-08-19T06:02:02;94912.09;;;38.76;nan
6423;BME280;3244;42.708;23.288;2022-08-19T06:09:23;94923.22;;;39.08;nan
6423;BME280;3244;42.708;23.288;2022-08-19T06:11:52;94916.59;;;38.99;nan
6423;BME280;3244;42.708;23.288;2022-08-19T06:14:24;94904.00;;;38.95;nan
6423;BME280;3244;42.708;23.288;2022-08-19T06:16:51;94921.78;;;38.59;nan
6423;BME280;3244;42.708;23.288;2022-08-19T06:19:20;94924.81;;;38.44;nan
6423;BME280;3244;42.708;23.288;2022-08-19T06:21:50;94919.78;;;39.08;nan
6423;BME280;3244;42.708;23.288;2022-08-19T06:24:19;94915.91;;;38.09;nan
6423;BME280;3244;42.708;23.288;2022-08-19T06:26:49;94921.38;;;39.32;nan
6423;BME280;3244;42.708;23.288;2022-08-19T06:29:17;94920.88;;;39.35;nan
6423;BME280;3244;42.708;23.288;2022-08-19T06:31:47;94923.97;;;38.86;nan
6423;BME280;3244;42.708;23.288;2022-08-19T06:34:16;94918.13;;;39.19;nan
6423;BME280;3244;42.708;23.288;2022-08-19T06:39:13;94919.94;;;39.65;nan
6423;BME280;3244;42.708;23.288;2022-08-19T06:46:35;94928.75;;;39.19;nan
6423;BME280;3244;42.708;23.288;2022-08-19T06:49:03;94928.97;;;38.10;nan
6423;BME280;3244;42.708;23.288;2022-08-19T06:51:30;94929.84;;;38.64;nan
6423;BME280;3244;42.708;23.288;2022-08-19T06:53:58;94915.13;;;38.50;nan
6423;BME280;3244;42.708;23.288;2022-08-19T06:56:27;94922.84;;;38.93;nan
6423;BME280;3244;42.708;23.288;2022-08-19T06:58:59;94926.97;;;39.83;nan
6423;BME280;3244;42.708;23.288;2022-08-19T07:01:26;94920.09;;;39.35;nan
6423;BME280;3244;42.708;23.288;2022-08-19T07:03:53;94929.94;;;37.98;nan
6423;BME280;3244;42.708;23.288;2022-08-19T07:08:48;94952.72;;;36.83;nan
6423;BME280;3244;42.708;23.288;2022-08-19T07:11:17;94935.22;;;36.12;nan
6423;BME280;3244;42.708;23.288;2022-08-19T07:13:45;94924.53;;;36.88;nan
6423;BME280;3244;42.708;23.288;2022-08-19T07:16:15;94926.47;;;37.24;nan
6423;BME280;3244;42.708;23.288;2022-08-19T07:18:44;94930.28;;;36.85;nan
6423;BME280;3244;42.708;23.288;2022-08-19T07:21:13;94926.47;;;35.60;nan
6423;BME280;3244;42.708;23.288;2022-08-19T07:23:43;94933.81;;;35.45;nan
6423;BME280;3244;42.708;23.288;2022-08-19T07:26:13;94945.25;;;34.73;nan
6423;BME280;3244;42.708;23.288;2022-08-19T07:28:41;94931.44;;;34.77;nan
6423;BME280;3244;42.708;23.288;2022-08-19T07:31:10;94924.84;;;35.59;nan
6423;BME280;3244;42.708;23.288;2022-08-19T07:33:38;94924.84;;;35.59;nan
6423;BME280;3244;42.708;23.288;2022-08-19T07:36:07;94922.59;;;35.63;nan
6423;BME280;3244;42.708;23.288;2022-08-19T07:38:37;94924.84;;;35.53;nan
6423;BME280;3244;42.708;23.288;2022-08-19T07:41:09;94923.16;;;35.78;nan
6423;BME280;3244;42.708;23.288;2022-08-19T07:43:36;94924.56;;;36.19;nan
6423;BME280;3244;42.708;23.288;2022-08-19T07:48:30;94925.72;;;35.20;nan
6423;BME280;3244;42.708;23.288;2022-08-19T07:50:59;94893.66;;;34.90;nan
6423;BME280;3244;42.708;23.288;2022-08-19T07:55:54;94924.16;;;34.86;nan
6423;BME280;3244;42.708;23.288;2022-08-19T07:58:26;94930.53;;;34.24;nan
6423;BME280;3244;42.708;23.288;2022-08-19T08:00:53;94928.19;;;33.82;nan
6423;BME280;3244;42.708;23.288;2022-08-19T08:03:21;94929.81;;;33.41;nan
6423;BME280;3244;42.708;23.288;2022-08-19T08:08:53;94927.78;;;32.81;nan
6423;BME280;3244;42.708;23.288;2022-08-19T08:11:45;94927.16;;;32.58;nan
6423;BME280;3244;42.708;23.288;2022-08-19T08:14:18;94931.41;;;32.80;nan
6423;BME280;3244;42.708;23.288;2022-08-19T08:16:45;94923.16;;;33.18;nan
6423;BME280;3244;42.708;23.288;2022-08-19T08:19:12;94918.50;;;33.13;nan
6423;BME280;3244;42.708;23.288;2022-08-19T08:24:07;94908.84;;;33.61;nan
6423;BME280;3244;42.708;23.288;2022-08-19T08:26:34;94920.28;;;33.82;nan
6423;BME280;3244;42.708;23.288;2022-08-19T08:29:01;94914.97;;;33.75;nan
6423;BME280;3244;42.708;23.288;2022-08-19T08:36:22;94902.88;;;33.87;nan
6423;BME280;3244;42.708;23.288;2022-08-19T08:38:49;94909.44;;;34.11;nan
6423;BME280;3244;42.708;23.288;2022-08-19T08:41:22;94909.44;;;34.11;nan
6423;BME280;3244;42.708;23.288;2022-08-19T08:43:53;94907.81;;;34.23;nan
6423;BME280;3244;42.708;23.288;2022-08-19T08:46:27;94906.16;;;34.16;nan
6423;BME280;3244;42.708;23.288;2022-08-19T08:51:31;94904.00;;;33.71;nan
6423;BME280;3244;42.708;23.288;2022-08-19T08:54:00;94889.88;;;33.38;nan
6423;BME280;3244;42.708;23.288;2022-08-19T08:56:28;94894.66;;;33.62;nan
6423;BME280;3244;42.708;23.288;2022-08-19T08:58:59;94882.00;;;33.99;nan
6423;BME280;3244;42.708;23.288;2022-08-19T09:01:27;94885.91;;;34.23;nan
6423;BME280;3244;42.708;23.288;2022-08-19T09:03:54;94885.94;;;34.42;nan
6423;BME280;3244;42.708;23.288;2022-08-19T09:06:29;94883.72;;;34.53;nan
6423;BME280;3244;42.708;23.288;2022-08-19T09:11:50;94877.63;;;34.65;nan
6423;BME280;3244;42.708;23.288;2022-08-19T09:14:37;94882.09;;;34.71;nan
6423;BME280;3244;42.708;23.288;2022-08-19T09:19:35;94874.16;;;34.71;nan
6423;BME280;3244;42.708;23.288;2022-08-19T09:22:03;94875.78;;;34.66;nan
6423;BME280;3244;42.708;23.288;2022-08-19T09:24:30;94867.88;;;34.66;nan
6423;BME280;3244;42.708;23.288;2022-08-19T09:26:57;94871.75;;;34.63;nan
6423;BME280;3244;42.708;23.288;2022-08-19T09:29:24;94866.88;;;34.54;nan
6423;BME280;3244;42.708;23.288;2022-08-19T09:31:51;94868.06;;;34.44;nan
6423;BME280;3244;42.708;23.288;2022-08-19T09:34:18;94859.94;;;34.26;nan
6423;BME280;3244;42.708;23.288;2022-08-19T09:36:45;94860.78;;;34.33;nan
6423;BME280;3244;42.708;23.288;2022-08-19T09:39:13;94848.19;;;34.49;nan
6423;BME280;3244;42.708;23.288;2022-08-19T09:41:40;94856.50;;;34.45;nan
6423;BME280;3244;42.708;23.288;2022-08-19T09:44:07;94851.84;;;34.34;nan
6423;BME280;3244;42.708;23.288;2022-08-19T09:46:34;94852.06;;;34.39;nan
6423;BME280;3244;42.708;23.288;2022-08-19T09:49:01;94859.97;;;34.53;nan
6423;BME280;3244;42.708;23.288;2022-08-19T09:54:00;94850.66;;;34.37;nan
6423;BME280;3244;42.708;23.288;2022-08-19T09:56:29;94846.53;;;34.28;nan
6423;BME280;3244;42.708;23.288;2022-08-19T09:58:57;94845.31;;;34.10;nan
6423;BME280;3244;42.708;23.288;2022-08-19T10:03:53;94844.28;;;33.98;nan
6423;BME280;3244;42.708;23.288;2022-08-19T10:06:21;94837.22;;;34.12;nan
6423;BME280;3244;42.708;23.288;2022-08-19T10:08:50;94828.69;;;34.10;nan
6423;BME280;3244;42.708;23.288;2022-08-19T10:11:18;94837.56;;;33.96;nan
6423;BME280;3244;42.708;23.288;2022-08-19T10:16:16;94823.00;;;34.20;nan
6423;BME280;3244;42.708;23.288;2022-08-19T10:23:40;94810.00;;;34.77;nan
6423;BME280;3244;42.708;23.288;2022-08-19T10:26:12;94818.53;;;34.86;nan
6423;BME280;3244;42.708;23.288;2022-08-19T10:28:39;94811.22;;;34.88;nan
6423;BME280;3244;42.708;23.288;2022-08-19T10:33:35;94811.19;;;34.95;nan
6423;BME280;3244;42.708;23.288;2022-08-19T10:38:30;94809.84;;;34.53;nan
6423;BME280;3244;42.708;23.288;2022-08-19T10:43:26;94801.69;;;34.21;nan
6423;BME280;3244;42.708;23.288;2022-08-19T10:45:54;94798.66;;;34.24;nan
6423;BME280;3244;42.708;23.288;2022-08-19T10:48:25;94795.00;;;34.25;nan
6423;BME280;3244;42.708;23.288;2022-08-19T10:50:51;94800.69;;;34.49;nan
6423;BME280;3244;42.708;23.288;2022-08-19T10:53:36;94791.31;;;34.66;nan
6423;BME280;3244;42.708;23.288;2022-08-19T10:58:47;94795.78;;;34.72;nan
6423;BME280;3244;42.708;23.288;2022-08-19T11:01:14;94798.25;;;34.60;nan
6423;BME280;3244;42.708;23.288;2022-08-19T11:03:42;94806.38;;;34.52;nan
6423;BME280;3244;42.708;23.288;2022-08-19T11:06:11;94796.66;;;34.39;nan
6423;BME280;3244;42.708;23.288;2022-08-19T11:13:34;94791.75;;;34.83;nan
6423;BME280;3244;42.708;23.288;2022-08-19T11:16:05;94787.59;;;35.06;nan
6423;BME280;3244;42.708;23.288;2022-08-19T11:18:33;94782.72;;;35.10;nan
6423;BME280;3244;42.708;23.288;2022-08-19T11:21:10;94781.59;;;34.86;nan
6423;BME280;3244;42.708;23.288;2022-08-19T11:23:39;94788.50;;;34.87;nan
6423;BME280;3244;42.708;23.288;2022-08-19T11:26:06;94779.91;;;34.92;nan
6423;BME280;3244;42.708;23.288;2022-08-19T11:28:33;94782.94;;;35.02;nan
6423;BME280;3244;42.708;23.288;2022-08-19T11:35:57;94780.00;;;34.52;nan
6423;BME280;3244;42.708;23.288;2022-08-19T11:38:26;94766.19;;;34.57;nan
6423;BME280;3244;42.708;23.288;2022-08-19T11:40:57;94763.34;;;34.52;nan
6423;BME280;3244;42.708;23.288;2022-08-19T11:43:24;94764.50;;;34.75;nan
6423;BME280;3244;42.708;23.288;2022-08-19T11:45:51;94755.59;;;34.83;nan
6423;BME280;3244;42.708;23.288;2022-08-19T11:48:18;94740.59;;;34.64;nan
6423;BME280;3244;42.708;23.288;2022-08-19T11:50:47;94766.94;;;34.77;nan
6423;BME280;3244;42.708;23.288;2022-08-19T11:53:15;94752.38;;;34.55;nan
6423;BME280;3244;42.708;23.288;2022-08-19T11:55:43;94752.16;;;34.63;nan
6423;BME280;3244;42.708;23.288;2022-08-19T11:58:10;94744.66;;;34.60;nan
6423;BME280;3244;42.708;23.288;2022-08-19T12:00:38;94751.50;;;34.74;nan
6423;BME280;3244;42.708;23.288;2022-08-19T12:03:05;94743.81;;;34.66;nan
6423;BME280;3244;42.708;23.288;2022-08-19T12:05:32;94731.63;;;34.71;nan
6423;BME280;3244;42.708;23.288;2022-08-19T12:07:59;94728.84;;;34.40;nan
6423;BME280;3244;42.708;23.288;2022-08-19T12:10:26;94725.44;;;34.39;nan
6423;BME280;3244;42.708;23.288;2022-08-19T12:15:21;94730.91;;;34.38;nan
6423;BME280;3244;42.708;23.288;2022-08-19T12:17:48;94733.34;;;34.33;nan
6423;BME280;3244;42.708;23.288;2022-08-19T12:20:15;94725.38;;;34.53;nan
6423;BME280;3244;42.708;23.288;2022-08-19T12:22:42;94711.31;;;34.85;nan
6423;BME280;3244;42.708;23.288;2022-08-19T12:25:10;94712.81;;;35.12;nan
6423;BME280;3244;42.708;23.288;2022-08-19T12:27:37;94666.03;;;35.20;nan
6423;BME280;3244;42.708;23.288;2022-08-19T12:30:08;94698.31;;;34.84;nan
6423;BME280;3244;42.708;23.288;2022-08-19T12:35:02;94698.31;;;34.84;nan
6423;BME280;3244;42.708;23.288;2022-08-19T12:37:29;94699.94;;;34.71;nan
6423;BME280;3244;42.708;23.288;2022-08-19T12:39:57;94702.38;;;34.73;nan
6423;BME280;3244;42.708;23.288;2022-08-19T12:42:24;94698.31;;;34.77;nan
6423;BME280;3244;42.708;23.288;2022-08-19T12:44:51;94695.50;;;34.65;nan
6423;BME280;3244;42.708;23.288;2022-08-19T12:47:19;94697.97;;;34.54;nan
6423;BME280;3244;42.708;23.288;2022-08-19T12:49:46;94688.84;;;34.50;nan
6423;BME280;3244;42.708;23.288;2022-08-19T12:52:14;94686.53;;;34.86;nan
6423;BME280;3244;42.708;23.288;2022-08-19T12:54:41;94686.88;;;34.96;nan
6423;BME280;3244;42.708;23.288;2022-08-19T12:57:09;94689.31;;;34.91;nan
6423;BME280;3244;42.708;23.288;2022-08-19T12:59:36;94687.56;;;35.17;nan
6423;BME280;3244;42.708;23.288;2022-08-19T13:02:03;94677.75;;;35.37;nan
6423;BME280;3244;42.708;23.288;2022-08-19T13:04:33;94692.41;;;35.26;nan
6423;BME280;3244;42.708;23.288;2022-08-19T13:07:02;94679.19;;;35.33;nan
6423;BME280;3244;42.708;23.288;2022-08-19T13:09:29;94680.22;;;35.32;nan
6423;BME280;3244;42.708;23.288;2022-08-19T13:11:55;94691.75;;;34.99;nan
6423;BME280;3244;42.708;23.288;2022-08-19T13:14:22;94664.09;;;35.02;nan
6423;BME280;3244;42.708;23.288;2022-08-19T13:19:16;94666.00;;;35.33;nan
6423;BME280;3244;42.708;23.288;2022-08-19T13:21:49;94663.59;;;35.56;nan
6423;BME280;3244;42.708;23.288;2022-08-19T13:24:15;94660.97;;;35.50;nan
6423;BME280;3244;42.708;23.288;2022-08-19T13:26:42;94674.53;;;35.22;nan
6423;BME280;3244;42.708;23.288;2022-08-19T13:29:09;94654.22;;;35.22;nan
6423;BME280;3244;42.708;23.288;2022-08-19T13:31:53;94655.19;;;34.96;nan
6423;BME280;3244;42.708;23.288;2022-08-19T13:34:37;94662.16;;;34.84;nan
6423;BME280;3244;42.708;23.288;2022-08-19T13:37:06;94644.38;;;34.60;nan
6423;BME280;3244;42.708;23.288;2022-08-19T13:39:34;94653.56;;;34.95;nan
6423;BME280;3244;42.708;23.288;2022-08-19T13:42:02;94648.38;;;34.82;nan
6423;BME280;3244;42.708;23.288;2022-08-19T13:44:30;94610.13;;;34.91;nan
6423;BME280;3244;42.708;23.288;2022-08-19T13:47:00;94654.56;;;34.50;nan
6423;BME280;3244;42.708;23.288;2022-08-19T13:49:32;94652.50;;;34.58;nan
6423;BME280;3244;42.708;23.288;2022-08-19T13:51:59;94641.47;;;34.68;nan
6423;BME280;3244;42.708;23.288;2022-08-19T13:54:27;94639.03;;;34.73;nan
6423;BME280;3244;42.708;23.288;2022-08-19T13:56:53;94634.34;;;34.75;nan
6423;BME280;3244;42.708;23.288;2022-08-19T13:59:20;94645.69;;;34.89;nan
6423;BME280;3244;42.708;23.288;2022-08-19T14:01:47;94631.59;;;35.01;nan
6423;BME280;3244;42.708;23.288;2022-08-19T14:04:14;94629.84;;;35.20;nan
6423;BME280;3244;42.708;23.288;2022-08-19T14:06:40;94630.84;;;35.32;nan
6423;BME280;3244;42.708;23.288;2022-08-19T14:09:07;94625.72;;;35.37;nan
6423;BME280;3244;42.708;23.288;2022-08-19T14:11:35;94624.44;;;35.40;nan
6423;BME280;3244;42.708;23.288;2022-08-19T14:14:02;94630.78;;;35.01;nan
6423;BME280;3244;42.708;23.288;2022-08-19T14:16:29;94631.72;;;34.75;nan
6423;BME280;3244;42.708;23.288;2022-08-19T14:18:56;94624.72;;;34.49;nan
6423;BME280;3244;42.708;23.288;2022-08-19T14:21:24;94592.44;;;34.54;nan
6423;BME280;3244;42.708;23.288;2022-08-19T14:23:52;94622.88;;;34.50;nan
6423;BME280;3244;42.708;23.288;2022-08-19T14:28:48;94618.84;;;34.47;nan
6423;BME280;3244;42.708;23.288;2022-08-19T14:38:37;94619.50;;;34.16;nan
6423;BME280;3244;42.708;23.288;2022-08-19T14:41:10;94622.13;;;34.16;nan
6423;BME280;3244;42.708;23.288;2022-08-19T14:43:37;94616.69;;;34.11;nan
6423;BME280;3244;42.708;23.288;2022-08-19T14:46:06;94622.59;;;34.13;nan
6423;BME280;3244;42.708;23.288;2022-08-19T14:48:33;94604.06;;;34.26;nan
6423;BME280;3244;42.708;23.288;2022-08-19T14:51:01;94598.91;;;34.58;nan
6423;BME280;3244;42.708;23.288;2022-08-19T14:53:28;94597.19;;;34.83;nan
6423;BME280;3244;42.708;23.288;2022-08-19T14:55:55;94600.81;;;34.89;nan
6423;BME280;3244;42.708;23.288;2022-08-19T14:58:21;94602.78;;;34.93;nan
6423;BME280;3244;42.708;23.288;2022-08-19T15:00:48;94606.72;;;34.84;nan
6423;BME280;3244;42.708;23.288;2022-08-19T15:03:17;94604.09;;;34.77;nan
6423;BME280;3244;42.708;23.288;2022-08-19T15:05:43;94608.28;;;34.47;nan
6423;BME280;3244;42.708;23.288;2022-08-19T15:08:10;94602.66;;;34.30;nan
6423;BME280;3244;42.708;23.288;2022-08-19T15:10:38;94602.66;;;34.30;nan
6423;BME280;3244;42.708;23.288;2022-08-19T15:13:05;94606.94;;;34.31;nan
6423;BME280;3244;42.708;23.288;2022-08-19T15:15:32;94603.84;;;34.28;nan
6423;BME280;3244;42.708;23.288;2022-08-19T15:17:59;94612.03;;;34.13;nan
6423;BME280;3244;42.708;23.288;2022-08-19T15:20:29;94609.63;;;33.98;nan
6423;BME280;3244;42.708;23.288;2022-08-19T15:22:56;94601.91;;;33.77;nan
6423;BME280;3244;42.708;23.288;2022-08-19T15:25:23;94600.72;;;33.86;nan
6423;BME280;3244;42.708;23.288;2022-08-19T15:27:49;94599.50;;;33.75;nan
6423;BME280;3244;42.708;23.288;2022-08-19T15:30:20;94600.75;;;33.79;nan
6423;BME280;3244;42.708;23.288;2022-08-19T15:32:47;94601.13;;;33.83;nan
6423;BME280;3244;42.708;23.288;2022-08-19T15:35:14;94604.78;;;33.62;nan
6423;BME280;3244;42.708;23.288;2022-08-19T15:37:47;94598.09;;;33.53;nan
6423;BME280;3244;42.708;23.288;2022-08-19T15:40:14;94595.03;;;33.43;nan
6423;BME280;3244;42.708;23.288;2022-08-19T15:42:40;94603.75;;;33.50;nan
6423;BME280;3244;42.708;23.288;2022-08-19T15:47:36;94601.13;;;33.50;nan
6423;BME280;3244;42.708;23.288;2022-08-19T15:50:06;94607.00;;;33.52;nan
6423;BME280;3244;42.708;23.288;2022-08-19T15:55:00;94595.47;;;33.53;nan
6423;BME280;3244;42.708;23.288;2022-08-19T15:57:28;94604.78;;;33.36;nan
6423;BME280;3244;42.708;23.288;2022-08-19T16:02:56;94603.34;;;33.27;nan
6423;BME280;3244;42.708;23.288;2022-08-19T16:05:40;94603.94;;;33.16;nan
6423;BME280;3244;42.708;23.288;2022-08-19T16:08:25;94599.69;;;33.15;nan
6423;BME280;3244;42.708;23.288;2022-08-19T16:13:20;94606.78;;;33.14;nan
6423;BME280;3244;42.708;23.288;2022-08-19T16:15:47;94607.97;;;33.05;nan
6423;BME280;3244;42.708;23.288;2022-08-19T16:18:13;94606.13;;;32.99;nan
6423;BME280;3244;42.708;23.288;2022-08-19T16:20:40;94604.72;;;33.03;nan
6423;BME280;3244;42.708;23.288;2022-08-19T16:23:08;94604.72;;;32.90;nan
6423;BME280;3244;42.708;23.288;2022-08-19T16:25:35;94617.19;;;32.74;nan
6423;BME280;3244;42.708;23.288;2022-08-19T16:28:05;94608.66;;;32.72;nan
6423;BME280;3244;42.708;23.288;2022-08-19T16:30:32;94602.84;;;32.77;nan
6423;BME280;3244;42.708;23.288;2022-08-19T16:32:59;94602.97;;;32.69;nan
6423;BME280;3244;42.708;23.288;2022-08-19T16:35:26;94601.56;;;32.60;nan
6423;BME280;3244;42.708;23.288;2022-08-19T16:37:52;94609.81;;;32.50;nan
6423;BME280;3244;42.708;23.288;2022-08-19T16:42:46;94616.16;;;32.21;nan
6423;BME280;3244;42.708;23.288;2022-08-19T16:47:45;94624.59;;;32.17;nan
6423;BME280;3244;42.708;23.288;2022-08-19T16:50:11;94612.03;;;32.12;nan
6423;BME280;3244;42.708;23.288;2022-08-19T16:52:38;94608.50;;;31.98;nan
6423;BME280;3244;42.708;23.288;2022-08-19T16:55:05;94621.63;;;31.92;nan
6423;BME280;3244;42.708;23.288;2022-08-19T16:57:32;94623.84;;;31.95;nan
6423;BME280;3244;42.708;23.288;2022-08-19T16:59:59;94620.84;;;31.98;nan
6423;BME280;3244;42.708;23.288;2022-08-19T17:02:29;94624.03;;;31.87;nan
6423;BME280;3244;42.708;23.288;2022-08-19T17:04:58;94625.16;;;31.77;nan
6423;BME280;3244;42.708;23.288;2022-08-19T17:07:25;94629.78;;;31.75;nan
6423;BME280;3244;42.708;23.288;2022-08-19T17:09:52;94629.16;;;31.73;nan
6423;BME280;3244;42.708;23.288;2022-08-19T17:12:19;94639.19;;;31.63;nan
6423;BME280;3244;42.708;23.288;2022-08-19T17:14:46;94638.00;;;31.44;nan
6423;BME280;3244;42.708;23.288;2022-08-19T17:17:13;94632.91;;;31.36;nan
6423;BME280;3244;42.708;23.288;2022-08-19T17:19:41;94639.16;;;31.14;nan
6423;BME280;3244;42.708;23.288;2022-08-19T17:22:09;94636.72;;;31.13;nan
6423;BME280;3244;42.708;23.288;2022-08-19T17:27:04;94650.63;;;30.92;nan
6423;BME280;3244;42.708;23.288;2022-08-19T17:31:57;94656.72;;;30.99;nan
6423;BME280;3244;42.708;23.288;2022-08-19T17:34:24;94663.28;;;30.88;nan
6423;BME280;3244;42.708;23.288;2022-08-19T17:36:52;94670.63;;;30.78;nan
6423;BME280;3244;42.708;23.288;2022-08-19T17:39:20;94664.88;;;30.68;nan
6423;BME280;3244;42.708;23.288;2022-08-19T17:41:47;94676.97;;;30.69;nan
6423;BME280;3244;42.708;23.288;2022-08-19T17:44:14;94672.72;;;30.53;nan
6423;BME280;3244;42.708;23.288;2022-08-19T17:46:43;94674.09;;;30.49;nan
6423;BME280;3244;42.708;23.288;2022-08-19T17:49:11;94677.44;;;30.43;nan
6423;BME280;3244;42.708;23.288;2022-08-19T17:51:42;94674.47;;;30.61;nan
6423;BME280;3244;42.708;23.288;2022-08-19T17:56:39;94672.56;;;30.40;nan
6423;BME280;3244;42.708;23.288;2022-08-19T17:59:07;94671.56;;;30.26;nan
6423;BME280;3244;42.708;23.288;2022-08-19T18:01:34;94681.94;;;30.20;nan
6423;BME280;3244;42.708;23.288;2022-08-19T18:06:28;94672.13;;;30.36;nan
6423;BME280;3244;42.708;23.288;2022-08-19T18:08:55;94688.41;;;30.17;nan
6423;BME280;3244;42.708;23.288;2022-08-19T18:13:50;94684.69;;;30.11;nan
6423;BME280;3244;42.708;23.288;2022-08-19T18:16:16;94690.91;;;30.10;nan
6423;BME280;3244;42.708;23.288;2022-08-19T18:18:45;94688.88;;;29.98;nan
6423;BME280;3244;42.708;23.288;2022-08-19T18:21:11;94690.13;;;29.87;nan
6423;BME280;3244;42.708;23.288;2022-08-19T18:26:06;94701.63;;;29.63;nan
6423;BME280;3244;42.708;23.288;2022-08-19T18:28:34;94704.50;;;29.54;nan
6423;BME280;3244;42.708;23.288;2022-08-19T18:31:04;94702.47;;;29.41;nan
6423;BME280;3244;42.708;23.288;2022-08-19T18:33:31;94702.78;;;29.38;nan
6423;BME280;3244;42.708;23.288;2022-08-19T18:38:26;94704.63;;;29.06;nan
6423;BME280;3244;42.708;23.288;2022-08-19T18:41:18;94701.84;;;29.08;nan
6423;BME280;3244;42.708;23.288;2022-08-19T18:44:04;94702.66;;;29.08;nan
6423;BME280;3244;42.708;23.288;2022-08-19T18:46:48;94699.03;;;29.09;nan
6423;BME280;3244;42.708;23.288;2022-08-19T18:54:27;94710.25;;;28.95;nan
6423;BME280;3244;42.708;23.288;2022-08-19T18:56:54;94715.38;;;28.81;nan
6423;BME280;3244;42.708;23.288;2022-08-19T18:59:22;94714.97;;;28.61;nan
6423;BME280;3244;42.708;23.288;2022-08-19T19:01:50;94718.25;;;28.47;nan
6423;BME280;3244;42.708;23.288;2022-08-19T19:04:21;94713.59;;;28.34;nan
6423;BME280;3244;42.708;23.288;2022-08-19T19:06:48;94712.50;;;28.20;nan
6423;BME280;3244;42.708;23.288;2022-08-19T19:11:48;94721.63;;;28.00;nan
6423;BME280;3244;42.708;23.288;2022-08-19T19:14:18;94724.41;;;27.98;nan
6423;BME280;3244;42.708;23.288;2022-08-19T19:16:49;94720.16;;;28.05;nan
6423;BME280;3244;42.708;23.288;2022-08-19T19:19:16;94721.16;;;27.96;nan
6423;BME280;3244;42.708;23.288;2022-08-19T19:21:45;94732.72;;;28.02;nan
6423;BME280;3244;42.708;23.288;2022-08-19T19:24:15;94749.22;;;28.19;nan
6423;BME280;3244;42.708;23.288;2022-08-19T19:26:42;94734.66;;;28.24;nan
6423;BME280;3244;42.708;23.288;2022-08-19T19:31:37;94740.22;;;28.05;nan
6423;BME280;3244;42.708;23.288;2022-08-19T19:36:31;94763.09;;;27.62;nan
6423;BME280;3244;42.708;23.288;2022-08-19T19:38:59;94753.75;;;27.52;nan
6423;BME280;3244;42.708;23.288;2022-08-19T19:41:25;94758.03;;;27.61;nan
6423;BME280;3244;42.708;23.288;2022-08-19T19:43:53;94765.06;;;27.68;nan
6423;BME280;3244;42.708;23.288;2022-08-19T19:48:49;94770.94;;;27.95;nan
6423;BME280;3244;42.708;23.288;2022-08-19T19:51:17;94763.41;;;28.00;nan
6423;BME280;3244;42.708;23.288;2022-08-19T19:53:44;94769.66;;;27.91;nan
6423;BME280;3244;42.708;23.288;2022-08-19T19:56:11;94775.50;;;27.85;nan
6423;BME280;3244;42.708;23.288;2022-08-19T19:58:38;94771.25;;;27.75;nan
6423;BME280;3244;42.708;23.288;2022-08-19T20:01:07;94772.69;;;27.54;nan
6423;BME280;3244;42.708;23.288;2022-08-19T20:03:37;94765.03;;;27.44;nan
6423;BME280;3244;42.708;23.288;2022-08-19T20:08:32;94770.22;;;27.52;nan
6423;BME280;3244;42.708;23.288;2022-08-19T20:18:44;94776.16;;;27.62;nan
6423;BME280;3244;42.708;23.288;2022-08-19T20:23:40;94767.94;;;27.49;nan
6423;BME280;3244;42.708;23.288;2022-08-19T20:26:07;94763.06;;;27.54;nan
6423;BME280;3244;42.708;23.288;2022-08-19T20:28:34;94771.56;;;27.56;nan
6423;BME280;3244;42.708;23.288;2022-08-19T20:31:00;94767.97;;;27.57;nan
6423;BME280;3244;42.708;23.288;2022-08-19T20:33:27;94771.22;;;27.43;nan
6423;BME280;3244;42.708;23.288;2022-08-19T20:35:54;94770.66;;;27.23;nan
6423;BME280;3244;42.708;23.288;2022-08-19T20:38:21;94781.56;;;27.10;nan
6423;BME280;3244;42.708;23.288;2022-08-19T20:40:49;94785.00;;;26.77;nan
6423;BME280;3244;42.708;23.288;2022-08-19T20:43:17;94794.75;;;26.67;nan
6423;BME280;3244;42.708;23.288;2022-08-19T20:50:38;94800.53;;;26.53;nan
6423;BME280;3244;42.708;23.288;2022-08-19T20:53:09;94795.94;;;26.47;nan
6423;BME280;3244;42.708;23.288;2022-08-19T20:55:37;94805.28;;;26.57;nan
6423;BME280;3244;42.708;23.288;2022-08-19T21:00:32;94812.03;;;26.68;nan
6423;BME280;3244;42.708;23.288;2022-08-19T21:02:58;94799.97;;;26.67;nan
6423;BME280;3244;42.708;23.288;2022-08-19T21:05:25;94805.56;;;26.28;nan
6423;BME280;3244;42.708;23.288;2022-08-19T21:10:18;94817.50;;;26.13;nan
6423;BME280;3244;42.708;23.288;2022-08-19T21:22:34;94801.50;;;25.64;nan
6423;BME280;3244;42.708;23.288;2022-08-19T21:27:28;94802.75;;;25.78;nan
6423;BME280;3244;42.708;23.288;2022-08-19T21:32:23;94800.97;;;25.96;nan
6423;BME280;3244;42.708;23.288;2022-08-19T21:49:33;94806.13;;;26.14;nan
6423;BME280;3244;42.708;23.288;2022-08-19T21:52:00;94806.50;;;26.19;nan
6423;BME280;3244;42.708;23.288;2022-08-19T21:56:55;94797.06;;;26.26;nan
6423;BME280;3244;42.708;23.288;2022-08-19T21:59:22;94814.00;;;26.22;nan
6423;BME280;3244;42.708;23.288;2022-08-19T22:04:16;94810.59;;;26.04;nan
6423;BME280;3244;42.708;23.288;2022-08-19T22:06:44;94800.47;;;26.19;nan
6423;BME280;3244;42.708;23.288;2022-08-19T22:09:11;94805.50;;;25.76;nan